Time;durP1;ratioP1;P1;durP2;ratioP2;P2;SDS_P1;SDS_P2;PMS_P1;PMS_P2;Temp;Humidity;BMP_temperature;BMP_pressure;BME280_temperature;BME280_humidity;BME280_pressure;Samples;Min_cycle;Max_cycle;Signal;HPM_P1;HPM_P2
2023/03/09 00:01:31;;;;;;;48.93;23.60;;;4.70;99.90;;;;;;4812362;29;20440;-75
2023/03/09 00:03:58;;;;;;;30.30;15.60;;;4.70;99.90;;;;;;4807885;29;20456;-73
2023/03/09 00:06:24;;;;;;;30.47;15.47;;;4.70;99.90;;;;;;4809609;29;20483;-74
2023/03/09 00:08:50;;;;;;;24.40;12.53;;;4.70;99.90;;;;;;4808463;29;20697;-74
2023/03/09 00:11:17;;;;;;;30.33;15.90;;;4.70;99.90;;;;;;4815355;29;20264;-75
2023/03/09 00:13:44;;;;;;;28.20;14.50;;;4.80;99.90;;;;;;4809874;29;20275;-74
2023/03/09 00:16:18;;;;;;;50.87;24.40;;;4.80;99.90;;;;;;4807898;29;20511;-74
2023/03/09 00:18:44;;;;;;;51.27;25.50;;;4.80;99.90;;;;;;4808278;29;20431;-73
2023/03/09 00:21:34;;;;;;;42.10;21.40;;;4.80;99.90;;;;;;4807560;29;20431;-72
2023/03/09 00:24:08;;;;;;;34.80;15.90;;;4.90;99.90;;;;;;4807875;29;20483;-73
2023/03/09 00:26:36;;;;;;;27.93;13.70;;;4.90;99.90;;;;;;4807886;29;20455;-74
2023/03/09 00:29:03;;;;;;;26.40;12.23;;;4.90;99.90;;;;;;4805789;29;20435;-73
2023/03/09 00:31:29;;;;;;;18.27;9.70;;;4.90;99.90;;;;;;4823305;29;20424;-73
2023/03/09 00:33:55;;;;;;;14.77;8.17;;;4.90;99.90;;;;;;4792338;29;20492;-74
2023/03/09 00:36:21;;;;;;;10.00;5.93;;;4.90;99.90;;;;;;4809397;29;20230;-73
2023/03/09 00:38:51;;;;;;;13.67;6.33;;;4.90;99.90;;;;;;4810629;29;20182;-74
2023/03/09 00:41:17;;;;;;;10.47;6.57;;;4.90;99.90;;;;;;4811291;29;20275;-73
2023/03/09 00:43:42;;;;;;;21.40;10.17;;;4.90;99.90;;;;;;4792012;29;20467;-73
2023/03/09 00:46:09;;;;;;;20.50;11.63;;;4.90;99.90;;;;;;4807667;29;20467;-75
2023/03/09 00:48:36;;;;;;;23.67;12.23;;;4.90;99.90;;;;;;4811644;29;20853;-73
2023/03/09 00:51:02;;;;;;;23.17;10.87;;;4.90;99.90;;;;;;4792264;29;20506;-73
2023/03/09 00:53:27;;;;;;;19.30;9.90;;;4.90;99.90;;;;;;4808357;29;20431;-74
2023/03/09 00:55:53;;;;;;;16.13;8.37;;;4.90;99.90;;;;;;4807986;29;20287;-73
2023/03/09 00:58:18;;;;;;;12.87;7.93;;;4.90;99.90;;;;;;4808062;29;20245;-74
2023/03/09 01:00:44;;;;;;;8.57;5.23;;;4.90;99.90;;;;;;4791933;29;20306;-73
2023/03/09 01:03:09;;;;;;;9.53;5.03;;;4.90;99.90;;;;;;4791622;29;20237;-74
2023/03/09 01:05:37;;;;;;;5.20;3.57;;;5.00;99.90;;;;;;4808224;29;20210;-72
2023/03/09 01:08:03;;;;;;;5.50;3.20;;;5.00;99.90;;;;;;4811791;29;20194;-73
2023/03/09 01:10:29;;;;;;;4.77;3.63;;;5.00;99.90;;;;;;4795949;29;20396;-73
2023/03/09 01:12:56;;;;;;;10.10;6.97;;;5.00;99.90;;;;;;4811483;29;20423;-74
2023/03/09 01:15:22;;;;;;;24.27;13.00;;;5.00;99.90;;;;;;4794802;29;20682;-73
2023/03/09 01:17:47;;;;;;;25.60;11.27;;;5.00;99.90;;;;;;4811292;29;20194;-73
2023/03/09 01:20:14;;;;;;;27.13;14.47;;;5.10;99.90;;;;;;4795709;29;20209;-73
2023/03/09 01:22:40;;;;;;;31.20;13.70;;;5.10;99.90;;;;;;4811151;29;20225;-74
2023/03/09 01:25:06;;;;;;;26.80;13.30;;;5.10;99.90;;;;;;4810209;29;20448;-73
2023/03/09 01:27:32;;;;;;;31.47;15.70;;;5.10;99.90;;;;;;4795134;29;20420;-73
2023/03/09 01:29:59;;;;;;;31.87;16.20;;;5.10;99.90;;;;;;4797576;29;20428;-73
2023/03/09 01:32:25;;;;;;;49.07;19.97;;;5.10;99.90;;;;;;4810937;29;20651;-73
2023/03/09 01:34:52;;;;;;;47.73;19.90;;;5.10;99.90;;;;;;4810046;29;20218;-73
2023/03/09 01:37:18;;;;;;;38.10;15.33;;;5.00;99.90;;;;;;4803621;29;20433;-73
2023/03/09 01:39:44;;;;;;;27.30;12.63;;;5.00;99.90;;;;;;4814857;29;20439;-72
2023/03/09 01:42:12;;;;;;;28.80;14.07;;;5.00;99.90;;;;;;4797884;29;20751;-73
2023/03/09 01:44:39;;;;;;;36.73;18.67;;;5.00;99.90;;;;;;4808237;29;20542;-74
2023/03/09 01:47:05;;;;;;;41.03;18.03;;;4.90;99.90;;;;;;4810692;29;20520;-73
2023/03/09 01:49:48;;;;;;;28.90;15.17;;;4.90;99.90;;;;;;4811180;29;20451;-74
2023/03/09 01:52:25;;;;;;;33.17;14.93;;;4.90;99.90;;;;;;4810424;29;20221;-72
2023/03/09 01:55:02;;;;;;;42.03;18.00;;;4.90;99.90;;;;;;4810597;29;20447;-73
2023/03/09 01:57:39;;;;;;;36.00;17.17;;;4.90;99.90;;;;;;4810789;29;20603;-73
2023/03/09 02:00:08;;;;;;;30.10;13.60;;;4.90;99.90;;;;;;4794708;29;20443;-74
2023/03/09 02:03:08;;;;;;;33.00;15.50;;;4.90;99.90;;;;;;4810368;29;20565;-73
2023/03/09 02:05:43;;;;;;;39.53;16.90;;;4.80;99.90;;;;;;4810957;29;20436;-73
2023/03/09 02:08:11;;;;;;;29.47;12.77;;;4.90;99.90;;;;;;4808503;29;20427;-77
2023/03/09 02:11:04;;;;;;;22.80;12.87;;;4.80;99.90;;;;;;4801833;29;20439;-75
2023/03/09 02:13:44;;;;;;;33.60;17.10;;;4.80;99.90;;;;;;4792721;29;20436;-74
2023/03/09 02:16:13;;;;;;;29.67;14.17;;;4.80;99.90;;;;;;4798824;29;20543;-72
2023/03/09 02:18:39;;;;;;;30.30;13.73;;;4.80;99.90;;;;;;4801576;29;20501;-75
2023/03/09 02:21:38;;;;;;;27.20;11.80;;;4.80;99.90;;;;;;4817805;29;20431;-76
2023/03/09 02:24:11;;;;;;;18.20;10.90;;;4.80;99.90;;;;;;4800301;29;20625;-72
2023/03/09 02:26:54;;;;;;;46.07;17.80;;;4.80;99.90;;;;;;4798983;29;20482;-73
2023/03/09 02:29:20;;;;;;;65.70;27.37;;;4.80;99.90;;;;;;4816306;29;20432;-73
2023/03/09 02:31:45;;;;;;;58.23;21.40;;;4.70;99.90;;;;;;4800768;29;20442;-73
2023/03/09 02:34:11;;;;;;;52.03;22.37;;;4.70;99.90;;;;;;4800137;29;20880;-74
2023/03/09 02:36:39;;;;;;;47.47;18.60;;;4.60;99.90;;;;;;4807820;29;20197;-73
2023/03/09 02:39:20;;;;;;;37.37;14.20;;;4.50;99.90;;;;;;4817137;29;20432;-72
2023/03/09 02:41:49;;;;;;;33.27;16.03;;;4.40;99.90;;;;;;4818480;29;20419;-74
2023/03/09 02:44:18;;;;;;;34.60;17.70;;;4.40;99.90;;;;;;4809967;29;20838;-74
2023/03/09 02:46:44;;;;;;;42.10;16.23;;;4.30;99.90;;;;;;4839138;29;20505;-73
2023/03/09 02:49:10;;;;;;;45.17;15.50;;;4.30;99.90;;;;;;4819341;29;20215;-75
2023/03/09 02:51:36;;;;;;;30.30;12.33;;;4.20;99.90;;;;;;4805619;29;20436;-74
2023/03/09 02:54:03;;;;;;;29.27;12.83;;;4.20;99.90;;;;;;4806145;29;20217;-74
2023/03/09 02:56:28;;;;;;;31.03;12.80;;;4.10;99.90;;;;;;4805048;29;20233;-74
2023/03/09 02:58:55;;;;;;;43.40;18.57;;;4.10;99.90;;;;;;4804475;29;20428;-74
2023/03/09 03:01:21;;;;;;;46.60;19.37;;;4.10;99.90;;;;;;4802224;29;20431;-74
2023/03/09 03:03:46;;;;;;;44.93;16.07;;;4.00;99.90;;;;;;4817017;29;20560;-73
2023/03/09 03:06:12;;;;;;;40.47;14.97;;;4.00;99.90;;;;;;4800235;29;20522;-73
2023/03/09 03:08:39;;;;;;;46.00;17.70;;;3.90;99.90;;;;;;4785032;29;20183;-75
2023/03/09 03:11:09;;;;;;;49.03;18.23;;;3.90;99.90;;;;;;4800128;29;20487;-73
2023/03/09 03:13:38;;;;;;;52.23;17.40;;;3.90;99.90;;;;;;4783876;29;20428;-74
2023/03/09 03:16:07;;;;;;;43.10;13.63;;;3.80;99.90;;;;;;4800093;29;20447;-75
2023/03/09 03:18:32;;;;;;;37.50;13.20;;;3.80;99.90;;;;;;4816496;29;20436;-74
2023/03/09 03:20:58;;;;;;;26.97;11.77;;;3.80;99.90;;;;;;4798907;29;20175;-74
2023/03/09 03:23:24;;;;;;;29.03;10.40;;;3.80;99.90;;;;;;4810021;29;20230;-74
2023/03/09 03:25:52;;;;;;;45.13;16.77;;;3.80;99.90;;;;;;4792914;29;20214;-74
2023/03/09 03:28:18;;;;;;;58.90;20.20;;;3.80;99.90;;;;;;4799506;29;20431;-73
2023/03/09 03:30:51;;;;;;;56.50;17.90;;;3.70;99.90;;;;;;4816179;29;20411;-75
2023/03/09 03:33:17;;;;;;;61.27;17.83;;;3.70;99.90;;;;;;4802504;29;20435;-73
2023/03/09 03:35:44;;;;;;;74.13;22.17;;;3.70;99.90;;;;;;4814729;29;20539;-77
2023/03/09 03:38:11;;;;;;;83.40;20.47;;;3.70;99.90;;;;;;4799879;29;20458;-75
2023/03/09 03:40:37;;;;;;;102.80;22.70;;;3.60;99.90;;;;;;4800580;29;20420;-74
2023/03/09 03:43:06;;;;;;;131.40;34.37;;;3.60;99.90;;;;;;4799753;29;20492;-74
2023/03/09 03:45:33;;;;;;;132.70;29.70;;;3.50;99.90;;;;;;4812338;29;20452;-74
2023/03/09 03:47:58;;;;;;;103.10;24.20;;;3.50;99.90;;;;;;4813255;29;20427;-75
2023/03/09 03:50:24;;;;;;;114.40;27.20;;;3.40;99.90;;;;;;4795347;29;20275;-73
2023/03/09 03:52:56;;;;;;;91.27;24.13;;;3.40;99.90;;;;;;4792891;29;20205;-73
2023/03/09 03:55:22;;;;;;;92.67;21.73;;;3.40;99.90;;;;;;4792166;29;20519;-75
2023/03/09 03:57:48;;;;;;;76.87;18.63;;;3.40;99.90;;;;;;4809339;29;20186;-74
2023/03/09 04:00:15;;;;;;;68.37;18.20;;;3.40;99.90;;;;;;4793348;29;20249;-74
2023/03/09 04:02:43;;;;;;;72.27;20.00;;;3.40;99.90;;;;;;4793359;29;20997;-74
2023/03/09 04:05:16;;;;;;;70.70;18.60;;;3.40;99.90;;;;;;4792420;29;20497;-73
2023/03/09 04:07:44;;;;;;;99.07;26.00;;;3.40;99.90;;;;;;4793075;29;20905;-74
2023/03/09 04:10:10;;;;;;;86.60;20.20;;;3.40;99.90;;;;;;4792959;29;20705;-74
2023/03/09 04:12:40;;;;;;;99.03;23.60;;;3.40;99.90;;;;;;4793032;29;20475;-73
2023/03/09 04:15:07;;;;;;;115.80;26.87;;;3.30;99.90;;;;;;4793190;29;20447;-74
2023/03/09 04:17:33;;;;;;;98.07;21.57;;;3.30;99.90;;;;;;4793672;29;20428;-75
2023/03/09 04:19:59;;;;;;;92.93;21.13;;;3.30;99.90;;;;;;4810138;29;20880;-74
2023/03/09 04:22:25;;;;;;;65.67;16.20;;;3.20;99.90;;;;;;4794613;29;20551;-75
2023/03/09 04:24:51;;;;;;;72.93;17.63;;;3.20;99.90;;;;;;4793638;29;20481;-74
2023/03/09 04:27:17;;;;;;;81.30;19.53;;;3.20;99.90;;;;;;4792921;29;20427;-75
2023/03/09 04:30:10;;;;;;;95.37;19.73;;;3.20;99.90;;;;;;4800408;29;20467;-72
2023/03/09 04:32:36;;;;;;;106.67;23.60;;;3.20;99.90;;;;;;4809199;29;20415;-74
2023/03/09 04:35:06;;;;;;;91.60;22.53;;;3.20;99.90;;;;;;4791793;29;20452;-74
2023/03/09 04:37:33;;;;;;;120.53;22.60;;;3.20;99.90;;;;;;4802171;29;20430;-74
2023/03/09 04:39:59;;;;;;;71.20;17.07;;;3.20;99.90;;;;;;4792630;29;20420;-73
2023/03/09 04:42:25;;;;;;;53.40;15.30;;;3.20;99.90;;;;;;4795463;29;20233;-74
2023/03/09 04:44:53;;;;;;;75.63;18.37;;;3.20;99.90;;;;;;4794947;29;20210;-74
2023/03/09 04:47:19;;;;;;;94.87;21.23;;;3.30;99.90;;;;;;4796431;29;20448;-74
2023/03/09 04:49:45;;;;;;;76.73;16.90;;;3.30;99.90;;;;;;4796175;29;20473;-74
2023/03/09 04:52:11;;;;;;;112.53;25.10;;;3.30;99.90;;;;;;4796099;29;20524;-74
2023/03/09 04:54:39;;;;;;;86.97;19.63;;;3.30;99.90;;;;;;4795610;29;20481;-74
2023/03/09 04:57:04;;;;;;;89.97;20.23;;;3.30;99.90;;;;;;4795422;29;20720;-73
2023/03/09 04:59:31;;;;;;;71.97;17.30;;;3.30;99.90;;;;;;4795686;29;20874;-74
2023/03/09 05:01:57;;;;;;;53.60;12.90;;;3.30;99.90;;;;;;4798939;29;20502;-74
2023/03/09 05:04:28;;;;;;;43.37;12.03;;;3.40;99.90;;;;;;4801120;29;20428;-76
2023/03/09 05:06:56;;;;;;;45.63;11.77;;;3.40;99.90;;;;;;4799975;29;20414;-74
2023/03/09 05:09:23;;;;;;;63.90;16.20;;;3.40;99.90;;;;;;4799323;29;20423;-74
2023/03/09 05:11:51;;;;;;;65.83;15.33;;;3.40;99.90;;;;;;4815422;29;20459;-74
2023/03/09 05:14:20;;;;;;;60.70;16.00;;;3.30;99.90;;;;;;4801222;29;20428;-74
2023/03/09 05:16:51;;;;;;;57.03;15.70;;;3.30;99.90;;;;;;4818605;29;20479;-74
2023/03/09 05:19:18;;;;;;;39.83;10.33;;;3.30;99.90;;;;;;4787172;29;20708;-74
2023/03/09 05:21:44;;;;;;;35.57;10.10;;;3.40;99.90;;;;;;4817188;29;20477;-75
2023/03/09 05:24:12;;;;;;;48.17;13.40;;;3.40;99.90;;;;;;4803462;29;20784;-76
2023/03/09 05:26:38;;;;;;;55.80;14.30;;;3.50;99.90;;;;;;4789778;29;20416;-74
2023/03/09 05:29:05;;;;;;;57.07;13.00;;;3.50;99.90;;;;;;4801398;29;20461;-76
2023/03/09 05:31:34;;;;;;;52.17;13.03;;;3.50;99.90;;;;;;4803349;29;20429;-76
2023/03/09 05:34:00;;;;;;;53.07;12.50;;;3.50;99.90;;;;;;4800552;29;20427;-74
2023/03/09 05:36:28;;;;;;;74.63;21.23;;;3.50;99.90;;;;;;4803651;29;20245;-75
2023/03/09 05:38:57;;;;;;;86.87;19.53;;;3.50;99.90;;;;;;4818656;29;20420;-75
2023/03/09 05:41:24;;;;;;;61.23;13.63;;;3.50;99.90;;;;;;4816955;29;20420;-75
2023/03/09 05:44:00;;;;;;;45.30;12.07;;;3.40;99.90;;;;;;4792811;29;20545;-75
2023/03/09 05:46:25;;;;;;;67.23;17.57;;;3.40;99.90;;;;;;4817154;29;20432;-75
2023/03/09 05:48:51;;;;;;;75.80;18.17;;;3.40;99.90;;;;;;4800412;29;20446;-75
2023/03/09 05:51:17;;;;;;;43.97;12.93;;;3.40;99.90;;;;;;4801474;29;20186;-75
2023/03/09 05:53:45;;;;;;;44.83;12.00;;;3.30;99.90;;;;;;4803222;29;20190;-77
2023/03/09 05:56:12;;;;;;;56.80;15.03;;;3.40;99.90;;;;;;4804679;29;20468;-76
2023/03/09 05:58:39;;;;;;;54.47;14.93;;;3.40;99.90;;;;;;4803162;29;20516;-74
2023/03/09 06:01:20;;;;;;;46.17;11.97;;;3.40;99.90;;;;;;4801567;29;20405;-75
2023/03/09 06:03:46;;;;;;;27.93;9.57;;;3.40;99.90;;;;;;4805179;29;20497;-76
2023/03/09 06:06:12;;;;;;;28.80;9.70;;;3.40;99.90;;;;;;4805030;29;20447;-76
2023/03/09 06:08:40;;;;;;;16.87;6.50;;;3.40;99.90;;;;;;4819257;29;20416;-75
2023/03/09 06:11:11;;;;;;;14.37;6.03;;;3.40;99.90;;;;;;4800462;29;20460;-75
2023/03/09 06:13:37;;;;;;;15.50;4.27;;;3.50;99.90;;;;;;4804997;29;20894;-75
2023/03/09 06:16:10;;;;;;;12.07;4.10;;;3.50;99.90;;;;;;4817658;29;20443;-76
2023/03/09 06:18:37;;;;;;;10.50;3.97;;;3.50;99.90;;;;;;4802751;29;20428;-75
2023/03/09 06:21:06;;;;;;;14.73;4.40;;;3.50;99.90;;;;;;4801731;29;20531;-75
2023/03/09 06:23:35;;;;;;;13.97;4.23;;;3.60;99.90;;;;;;4802418;29;20476;-77
2023/03/09 06:26:04;;;;;;;7.60;3.70;;;3.60;99.90;;;;;;4804791;29;20432;-76
2023/03/09 06:28:30;;;;;;;12.60;4.03;;;3.60;99.90;;;;;;4788098;29;20440;-76
2023/03/09 06:30:57;;;;;;;13.23;4.50;;;3.60;99.90;;;;;;4802144;29;20432;-76
2023/03/09 06:33:24;;;;;;;27.70;8.83;;;3.60;99.90;;;;;;4803260;29;20417;-75
2023/03/09 06:35:58;;;;;;;45.30;12.60;;;3.60;99.90;;;;;;4819117;29;20960;-74
2023/03/09 06:38:24;;;;;;;39.03;12.10;;;3.50;99.90;;;;;;4807236;29;20428;-77
2023/03/09 06:40:54;;;;;;;49.80;13.70;;;3.50;99.90;;;;;;4790796;29;20420;-76
2023/03/09 06:43:22;;;;;;;48.00;13.27;;;3.50;99.90;;;;;;4801676;29;20547;-75
2023/03/09 06:45:48;;;;;;;57.03;15.37;;;3.50;99.90;;;;;;4816862;29;20452;-76
2023/03/09 06:48:14;;;;;;;62.67;15.03;;;3.50;99.90;;;;;;4815834;29;20441;-77
2023/03/09 06:50:41;;;;;;;53.73;13.07;;;3.40;99.90;;;;;;4800592;29;20451;-75
2023/03/09 06:53:10;;;;;;;42.40;11.37;;;3.50;99.90;;;;;;4802267;29;20444;-77
2023/03/09 06:55:37;;;;;;;44.37;13.53;;;3.50;99.90;;;;;;4801217;30;20872;-77
2023/03/09 06:58:03;;;;;;;63.43;15.30;;;3.50;99.90;;;;;;4804594;29;20482;-77
2023/03/09 07:00:29;;;;;;;41.43;13.83;;;3.60;99.90;;;;;;4821966;29;20420;-78
2023/03/09 07:03:01;;;;;;;40.67;11.13;;;3.60;99.90;;;;;;4807959;29;20521;-77
2023/03/09 07:05:27;;;;;;;40.37;13.00;;;3.60;99.90;;;;;;4820978;29;20451;-77
2023/03/09 07:07:52;;;;;;;35.50;12.00;;;3.60;99.90;;;;;;4820916;29;20424;-78
2023/03/09 07:10:18;;;;;;;38.90;12.47;;;3.70;99.90;;;;;;4819559;29;20198;-78
2023/03/09 07:12:48;;;;;;;61.60;16.90;;;3.60;99.90;;;;;;4803043;30;20243;-78
2023/03/09 07:15:15;;;;;;;44.63;13.60;;;3.70;99.90;;;;;;4784643;30;20488;-77
2023/03/09 07:17:44;;;;;;;59.67;14.10;;;3.70;99.90;;;;;;4784885;30;20434;-77
2023/03/09 07:20:12;;;;;;;80.53;21.80;;;3.80;99.90;;;;;;4772285;30;20569;-77
2023/03/09 07:22:38;;;;;;;64.33;20.67;;;3.80;99.90;;;;;;4771083;30;20484;-78
2023/03/09 07:25:07;;;;;;;55.40;17.17;;;3.70;99.90;;;;;;4783727;30;20457;-78
2023/03/09 07:27:34;;;;;;;56.50;13.50;;;3.80;99.90;;;;;;4769381;30;20441;-77
2023/03/09 07:30:00;;;;;;;62.17;18.87;;;3.80;99.90;;;;;;4774865;30;20525;-78
2023/03/09 07:32:27;;;;;;;51.70;19.20;;;3.80;99.90;;;;;;4768732;30;20434;-77
2023/03/09 07:34:53;;;;;;;75.40;19.63;;;3.90;99.90;;;;;;4785081;30;20462;-78
2023/03/09 07:37:19;;;;;;;41.50;12.23;;;4.00;99.90;;;;;;4786172;30;20437;-78
2023/03/09 07:39:46;;;;;;;54.47;14.53;;;4.10;99.90;;;;;;4770996;30;20422;-78
2023/03/09 07:42:15;;;;;;;49.80;13.60;;;4.20;99.90;;;;;;4772879;30;20430;-79
2023/03/09 07:44:52;;;;;;;90.83;24.70;;;4.30;99.90;;;;;;4785997;30;20442;-79
2023/03/09 07:47:18;;;;;;;79.40;27.20;;;4.50;99.90;;;;;;4823833;29;20420;-78
2023/03/09 07:49:55;;;;;;;38.33;14.50;;;4.50;99.90;;;;;;4794574;29;20432;-78
2023/03/09 07:52:24;;;;;;;32.30;13.70;;;4.50;99.90;;;;;;4806533;30;20199;-77
2023/03/09 07:55:16;;;;;;;44.77;16.77;;;4.40;99.90;;;;;;4791337;30;20473;-77
2023/03/09 07:58:02;;;;;;;29.00;9.73;;;4.40;99.90;;;;;;4806669;30;20530;-77
2023/03/09 08:00:32;;;;;;;19.43;7.37;;;4.40;99.90;;;;;;4789731;30;20461;-76
2023/03/09 08:03:09;;;;;;;17.40;6.13;;;4.50;99.90;;;;;;4778144;30;20500;-78
2023/03/09 08:05:43;;;;;;;31.70;13.63;;;4.50;99.90;;;;;;4789294;30;20517;-76
2023/03/09 08:08:11;;;;;;;14.87;8.53;;;4.50;99.90;;;;;;4757388;30;20442;-78
2023/03/09 08:10:47;;;;;;;19.80;6.80;;;4.50;99.90;;;;;;4757576;30;20426;-77
2023/03/09 08:13:33;;;;;;;19.87;7.67;;;4.50;99.90;;;;;;4754971;30;20476;-77
2023/03/09 08:16:29;;;;;;;20.70;8.90;;;4.60;99.90;;;;;;4741241;30;20462;-78
2023/03/09 08:18:58;;;;;;;13.40;5.67;;;4.60;99.90;;;;;;4756920;30;20427;-77
2023/03/09 08:21:29;;;;;;;15.20;6.53;;;4.70;99.90;;;;;;4756620;30;20450;-78
2023/03/09 08:24:02;;;;;;;11.87;5.80;;;4.80;99.90;;;;;;4770656;30;20559;-78
2023/03/09 08:27:12;;;;;;;8.20;4.13;;;4.80;99.90;;;;;;4772295;30;20431;-78
2023/03/09 08:29:43;;;;;;;13.83;7.30;;;5.00;99.90;;;;;;4757280;30;20509;-78
2023/03/09 08:32:16;;;;;;;5.70;3.10;;;5.10;99.90;;;;;;4772776;30;20641;-79
2023/03/09 08:34:45;;;;;;;11.33;5.80;;;5.20;99.90;;;;;;4712198;30;20456;-78
2023/03/09 08:40:22;;;;;;;11.57;5.73;;;5.30;99.90;;;;;;4912982;24;20823;-78
2023/03/09 08:43:00;;;;;;;8.63;5.20;;;5.20;99.90;;;;;;4777022;29;20465;-78
2023/03/09 08:46:08;;;;;;;27.43;12.43;;;5.20;99.90;;;;;;5048487;24;20467;-78
2023/03/09 08:49:00;;;;;;;25.33;11.10;;;5.10;99.90;;;;;;4797851;29;20497;-80
2023/03/09 08:51:55;;;;;;;15.57;7.70;;;5.10;99.90;;;;;;4788789;29;20434;-78
2023/03/09 08:54:57;;;;;;;10.17;6.10;;;5.00;99.90;;;;;;4781103;30;20466;-79
2023/03/09 09:07:09;;;;;;;8.33;5.33;;;5.30;99.90;;;;;;5163737;24;20519;-78
2023/03/09 09:09:43;;;;;;;25.93;12.57;;;5.40;99.90;;;;;;4807656;29;20409;-78
2023/03/09 09:12:11;;;;;;;20.20;9.40;;;5.50;99.90;;;;;;4793443;30;20421;-78
2023/03/09 09:15:07;;;;;;;19.80;9.00;;;5.60;99.90;;;;;;4808563;29;20440;-77
2023/03/09 09:24:15;;;;;;;12.60;7.90;;;5.50;99.90;;;;;;5346803;24;20535;-79
2023/03/09 10:50:18;;;;;;;8.07;6.20;;;7.30;99.90;;;;;;4808874;30;20477;-79
2023/03/09 10:52:46;;;;;;;16.70;9.70;;;7.40;99.90;;;;;;4790413;30;20426;-79
2023/03/09 11:06:59;;;;;;;14.23;11.60;;;7.10;99.90;;;;;;4811889;24;20489;-77
2023/03/09 11:09:47;;;;;;;23.13;14.57;;;7.10;99.90;;;;;;4805052;29;20429;-76
2023/03/09 11:12:36;;;;;;;16.30;11.67;;;7.00;99.90;;;;;;4790397;29;20524;-77
2023/03/09 11:15:30;;;;;;;16.40;12.97;;;7.00;99.90;;;;;;4791880;30;20443;-76
2023/03/09 11:18:00;;;;;;;27.10;13.50;;;7.00;99.90;;;;;;4792821;30;20493;-78
2023/03/09 11:20:33;;;;;;;21.20;15.00;;;7.10;99.90;;;;;;4795847;30;20429;-77
2023/03/09 11:23:21;;;;;;;17.07;13.37;;;7.00;99.90;;;;;;4790258;30;20469;-77
2023/03/09 11:26:04;;;;;;;17.23;13.37;;;7.00;99.90;;;;;;4809543;29;20470;-75
2023/03/09 11:28:32;;;;;;;12.03;9.77;;;7.00;99.90;;;;;;4808414;29;20498;-77
2023/03/09 11:31:00;;;;;;;10.60;8.80;;;7.10;99.90;;;;;;4805935;29;20405;-76
2023/03/09 11:33:29;;;;;;;11.93;10.43;;;7.30;99.90;;;;;;4807638;30;20422;-76
2023/03/09 11:36:24;;;;;;;23.87;13.77;;;7.40;99.90;;;;;;4822807;29;20475;-76
2023/03/09 11:39:03;;;;;;;14.80;11.77;;;7.50;99.90;;;;;;4809931;29;20419;-75
2023/03/09 11:41:38;;;;;;;13.93;11.50;;;7.60;99.90;;;;;;4809529;29;20463;-75
2023/03/09 11:44:35;;;;;;;16.77;14.57;;;7.50;99.90;;;;;;4798654;29;20476;-74
2023/03/09 11:47:10;;;;;;;16.40;11.63;;;7.30;99.90;;;;;;4793704;30;20433;-76
2023/03/09 11:49:42;;;;;;;15.17;11.00;;;7.20;99.90;;;;;;4806707;29;20425;-75
2023/03/09 11:52:17;;;;;;;18.33;13.70;;;7.30;99.90;;;;;;4808383;29;20450;-76
2023/03/09 11:54:49;;;;;;;14.10;12.10;;;7.50;99.90;;;;;;4809332;29;20453;-76
2023/03/09 11:57:19;;;;;;;19.83;13.30;;;7.80;99.90;;;;;;4798567;29;20416;-76
2023/03/09 12:00:06;;;;;;;19.97;14.07;;;8.00;99.90;;;;;;4823919;29;20431;-76
2023/03/09 12:03:29;;;;;;;17.17;14.17;;;8.30;99.90;;;;;;4824499;29;20517;-76
2023/03/09 12:06:15;;;;;;;11.33;9.90;;;8.40;99.90;;;;;;4973845;24;20484;-76
2023/03/09 12:08:44;;;;;;;14.20;11.80;;;8.30;99.90;;;;;;4777765;30;20445;-75
2023/03/09 12:11:34;;;;;;;18.20;14.17;;;8.30;99.90;;;;;;4806734;29;20448;-76
2023/03/09 12:14:20;;;;;;;16.13;14.07;;;8.00;99.90;;;;;;4807488;30;20433;-76
2023/03/09 12:16:54;;;;;;;21.03;14.60;;;7.90;99.90;;;;;;4755756;30;20439;-75
2023/03/09 12:19:26;;;;;;;19.20;14.20;;;7.90;99.90;;;;;;4756615;30;20431;-74
2023/03/09 12:22:05;;;;;;;23.43;16.13;;;7.90;99.90;;;;;;4756289;29;20443;-75
2023/03/09 12:25:13;;;;;;;16.27;13.60;;;7.80;99.90;;;;;;4755277;30;20552;-76
2023/03/09 12:27:51;;;;;;;20.77;15.57;;;7.70;99.90;;;;;;4771155;30;20419;-75
2023/03/09 12:30:49;;;;;;;16.00;12.23;;;7.70;99.90;;;;;;4744170;30;20425;-75
2023/03/09 12:33:41;;;;;;;18.07;14.90;;;7.70;99.90;;;;;;4769782;30;20425;-74
2023/03/09 12:36:40;;;;;;;16.43;12.70;;;7.70;99.90;;;;;;4758771;30;20495;-76
2023/03/09 12:39:33;;;;;;;20.63;14.57;;;7.70;99.90;;;;;;4772021;30;20429;-75
2023/03/09 12:42:06;;;;;;;14.40;11.03;;;7.70;99.90;;;;;;4770686;30;20792;-74
2023/03/09 12:44:47;;;;;;;12.40;9.77;;;7.80;99.90;;;;;;4767280;29;20513;-75
2023/03/09 12:47:45;;;;;;;19.00;14.03;;;7.70;99.90;;;;;;4776666;30;20561;-73
2023/03/09 12:50:48;;;;;;;13.80;11.00;;;7.80;99.90;;;;;;4785013;30;20426;-73
2023/03/09 12:53:25;;;;;;;21.47;15.80;;;7.80;99.90;;;;;;4772105;30;20433;-73
2023/03/09 12:55:58;;;;;;;13.07;10.33;;;7.80;99.90;;;;;;4801921;29;20449;-75
2023/03/09 12:58:24;;;;;;;10.23;9.17;;;7.70;99.90;;;;;;4803377;29;20441;-72
2023/03/09 13:01:26;;;;;;;10.87;7.70;;;7.70;99.90;;;;;;4779722;30;20434;-73
2023/03/09 13:20:36;;;;;;;15.20;13.70;;;7.60;99.90;;;;;;6140688;22;1244012;-75
2023/03/09 13:23:14;;;;;;;14.43;12.80;;;9.90;99.90;;;;;;6182852;23;20131;-75
2023/03/09 13:25:51;;;;;;;16.33;14.63;;;9.20;99.90;;;;;;6134326;23;20382;-74
2023/03/09 13:28:38;;;;;;;15.37;13.43;;;8.70;99.90;;;;;;6159316;23;20402;-75
2023/03/09 13:31:20;;;;;;;18.90;15.83;;;8.50;99.90;;;;;;6137155;23;20402;-73
2023/03/09 13:33:47;;;;;;;16.77;14.47;;;8.30;99.90;;;;;;6185589;23;20449;-74
2023/03/09 13:36:19;;;;;;;23.27;18.40;;;8.30;99.90;;;;;;6103214;23;20399;-78
2023/03/09 13:38:54;;;;;;;23.53;16.47;;;8.30;99.90;;;;;;6081277;23;20411;-79
2023/03/09 13:41:44;;;;;;;20.67;16.97;;;8.30;99.90;;;;;;6033343;23;20398;-79
2023/03/09 13:44:26;;;;;;;21.60;16.77;;;8.30;99.90;;;;;;6109640;23;20364;-78
2023/03/09 13:52:32;;;;;;;30.13;19.47;;;8.10;99.90;;;;;;6129394;23;20436;-78
2023/03/09 14:01:40;;;;;;;26.40;19.60;;;8.20;99.90;;;;;;6117194;23;20442;-75
2023/03/09 14:04:18;;;;;;;26.53;18.40;;;8.10;99.90;;;;;;6081789;23;20395;-80
2023/03/09 14:16:34;;;;;;;21.43;18.43;;;8.80;99.90;;;;;;6128095;23;20486;-77
2023/03/09 14:19:26;;;;;;;24.30;19.77;;;8.60;99.90;;;;;;6105101;23;20380;-78
2023/03/09 14:24:42;;;;;;;25.20;18.70;;;8.60;99.90;;;;;;6119021;23;20452;-78
2023/03/09 14:27:33;;;;;;;19.73;17.63;;;8.70;99.90;;;;;;6050524;23;20416;-77
2023/03/09 14:30:45;;;;;;;22.90;16.50;;;8.80;99.90;;;;;;6095116;23;20471;-77
2023/03/09 14:33:33;;;;;;;18.73;15.83;;;9.00;99.90;;;;;;6101972;23;20424;-77
2023/03/09 14:36:19;;;;;;;28.63;19.93;;;9.10;99.90;;;;;;6065397;23;20462;-79
2023/03/09 14:39:48;;;;;;;21.77;18.60;;;9.20;99.90;;;;;;6040659;23;20339;-79
2023/03/09 14:42:38;;;;;;;19.77;17.40;;;9.30;99.90;;;;;;6020346;23;20680;-77
2023/03/09 15:00:55;;;;;;;20.10;17.60;;;10.20;99.90;;;;;;6116175;23;20526;-78
2023/03/09 15:11:53;;;;;;;15.70;14.17;;;10.90;99.90;;;;;;6118690;23;20504;-79
2023/03/09 15:14:51;;;;;;;14.80;13.07;;;10.80;99.90;;;;;;6076686;23;20366;-78
2023/03/09 15:17:21;;;;;;;15.77;12.37;;;10.90;99.90;;;;;;6036086;23;20380;-78
2023/03/09 15:19:53;;;;;;;15.47;13.60;;;10.90;99.90;;;;;;6012206;23;20407;-79
2023/03/09 15:22:33;;;;;;;18.60;14.47;;;10.90;99.90;;;;;;6105057;23;20436;-77
2023/03/09 15:25:00;;;;;;;16.47;14.53;;;11.00;99.90;;;;;;6049129;23;20382;-78
2023/03/09 15:27:27;;;;;;;16.80;11.40;;;10.90;99.90;;;;;;6064014;23;20459;-77
2023/03/09 15:30:03;;;;;;;16.27;12.70;;;11.00;99.90;;;;;;6098568;23;20417;-78
2023/03/09 15:32:49;;;;;;;13.73;12.33;;;11.10;99.90;;;;;;6098962;23;20387;-79
2023/03/09 15:35:42;;;;;;;12.83;10.27;;;11.20;99.90;;;;;;6090172;23;20384;-76
2023/03/09 15:38:21;;;;;;;12.20;8.50;;;11.10;99.90;;;;;;6052176;23;20451;-78
2023/03/09 15:40:55;;;;;;;10.20;7.93;;;11.10;99.90;;;;;;6098089;23;20447;-77
2023/03/09 15:43:37;;;;;;;10.97;7.27;;;11.10;99.90;;;;;;6074691;23;20467;-79
2023/03/09 15:46:46;;;;;;;10.70;7.40;;;11.10;99.90;;;;;;6100458;23;20360;-79
2023/03/09 15:52:24;;;;;;;8.43;6.03;;;11.10;99.90;;;;;;6152032;23;20444;-79
2023/03/09 15:54:52;;;;;;;11.43;5.73;;;11.10;99.90;;;;;;6152992;23;20391;-78
2023/03/09 15:57:19;;;;;;;8.40;4.00;;;11.10;99.90;;;;;;6127355;23;20680;-78
2023/03/09 16:02:36;;;;;;;8.33;4.40;;;11.30;99.90;;;;;;6108205;23;20449;-77
2023/03/09 16:05:10;;;;;;;21.00;5.47;;;11.40;99.90;;;;;;6098567;23;20427;-77
2023/03/09 16:30:31;;;;;;;13.70;4.27;;;12.10;99.90;;;;;;6105056;23;20432;-77
2023/03/09 16:33:12;;;;;;;18.17;4.70;;;12.10;99.90;;;;;;6098670;23;20376;-79
2023/03/09 16:35:44;;;;;;;13.13;3.20;;;12.00;99.90;;;;;;6052377;23;20360;-79
2023/03/09 16:38:18;;;;;;;15.87;4.03;;;12.00;99.90;;;;;;6051390;23;20388;-78